sensor_id;sensor_type;location;lat;lon;timestamp;P1;durP1;ratioP1;P2;durP2;ratioP2
11098;SDS011;12223;42.650;23.364;2024-03-02T00:01:53;4.70;;;2.60;;
11098;SDS011;12223;42.650;23.364;2024-03-02T00:04:18;4.00;;;2.53;;
11098;SDS011;12223;42.650;23.364;2024-03-02T00:06:44;5.05;;;2.58;;
11098;SDS011;12223;42.650;23.364;2024-03-02T00:09:10;5.28;;;2.92;;
11098;SDS011;12223;42.650;23.364;2024-03-02T00:11:39;5.63;;;3.00;;
11098;SDS011;12223;42.650;23.364;2024-03-02T00:14:05;5.13;;;3.13;;
11098;SDS011;12223;42.650;23.364;2024-03-02T00:16:31;5.03;;;3.05;;
11098;SDS011;12223;42.650;23.364;2024-03-02T00:19:05;4.05;;;2.60;;
11098;SDS011;12223;42.650;23.364;2024-03-02T00:21:32;4.82;;;2.90;;
11098;SDS011;12223;42.650;23.364;2024-03-02T00:23:58;5.05;;;3.35;;
11098;SDS011;12223;42.650;23.364;2024-03-02T00:26:23;5.38;;;2.97;;
11098;SDS011;12223;42.650;23.364;2024-03-02T00:28:49;4.80;;;3.22;;
11098;SDS011;12223;42.650;23.364;2024-03-02T00:31:15;4.38;;;2.60;;
11098;SDS011;12223;42.650;23.364;2024-03-02T00:33:44;5.40;;;2.70;;
11098;SDS011;12223;42.650;23.364;2024-03-02T00:36:15;4.78;;;2.70;;
11098;SDS011;12223;42.650;23.364;2024-03-02T00:41:07;4.30;;;2.50;;
11098;SDS011;12223;42.650;23.364;2024-03-02T00:45:57;4.60;;;2.70;;
11098;SDS011;12223;42.650;23.364;2024-03-02T00:48:23;6.65;;;3.83;;
11098;SDS011;12223;42.650;23.364;2024-03-02T00:50:54;5.35;;;2.50;;
11098;SDS011;12223;42.650;23.364;2024-03-02T00:53:21;4.20;;;2.60;;
11098;SDS011;12223;42.650;23.364;2024-03-02T00:55:52;5.18;;;2.88;;
11098;SDS011;12223;42.650;23.364;2024-03-02T00:58:17;5.40;;;2.83;;
11098;SDS011;12223;42.650;23.364;2024-03-02T01:00:43;4.47;;;2.83;;
11098;SDS011;12223;42.650;23.364;2024-03-02T01:03:08;4.43;;;2.83;;
11098;SDS011;12223;42.650;23.364;2024-03-02T01:05:35;4.53;;;2.40;;
11098;SDS011;12223;42.650;23.364;2024-03-02T01:08:01;4.38;;;2.47;;
11098;SDS011;12223;42.650;23.364;2024-03-02T01:10:26;4.85;;;2.67;;
11098;SDS011;12223;42.650;23.364;2024-03-02T01:12:52;4.80;;;3.00;;
11098;SDS011;12223;42.650;23.364;2024-03-02T01:15:17;4.35;;;2.60;;
11098;SDS011;12223;42.650;23.364;2024-03-02T01:17:44;5.18;;;2.88;;
11098;SDS011;12223;42.650;23.364;2024-03-02T01:20:09;5.82;;;3.22;;
11098;SDS011;12223;42.650;23.364;2024-03-02T01:22:35;4.97;;;2.80;;
11098;SDS011;12223;42.650;23.364;2024-03-02T01:25:01;5.40;;;2.85;;
11098;SDS011;12223;42.650;23.364;2024-03-02T01:27:26;3.67;;;2.38;;
11098;SDS011;12223;42.650;23.364;2024-03-02T01:29:52;4.07;;;2.40;;
11098;SDS011;12223;42.650;23.364;2024-03-02T01:32:17;4.32;;;2.80;;
11098;SDS011;12223;42.650;23.364;2024-03-02T01:34:43;3.90;;;2.58;;
11098;SDS011;12223;42.650;23.364;2024-03-02T01:37:08;4.75;;;2.63;;
11098;SDS011;12223;42.650;23.364;2024-03-02T01:39:35;3.90;;;2.05;;
11098;SDS011;12223;42.650;23.364;2024-03-02T01:42:00;5.07;;;2.70;;
11098;SDS011;12223;42.650;23.364;2024-03-02T01:44:26;4.85;;;2.35;;
11098;SDS011;12223;42.650;23.364;2024-03-02T01:46:51;3.47;;;2.13;;
11098;SDS011;12223;42.650;23.364;2024-03-02T01:49:16;4.03;;;2.47;;
11098;SDS011;12223;42.650;23.364;2024-03-02T01:51:42;4.97;;;3.20;;
11098;SDS011;12223;42.650;23.364;2024-03-02T01:54:07;5.32;;;2.92;;
11098;SDS011;12223;42.650;23.364;2024-03-02T01:56:32;4.35;;;2.67;;
11098;SDS011;12223;42.650;23.364;2024-03-02T01:58:58;4.05;;;2.83;;
11098;SDS011;12223;42.650;23.364;2024-03-02T02:01:24;3.65;;;2.42;;
11098;SDS011;12223;42.650;23.364;2024-03-02T02:03:49;3.78;;;2.28;;
11098;SDS011;12223;42.650;23.364;2024-03-02T02:06:14;3.80;;;2.20;;
11098;SDS011;12223;42.650;23.364;2024-03-02T02:08:40;2.95;;;2.00;;
11098;SDS011;12223;42.650;23.364;2024-03-02T02:11:06;5.75;;;3.13;;
11098;SDS011;12223;42.650;23.364;2024-03-02T02:13:31;4.45;;;2.25;;
11098;SDS011;12223;42.650;23.364;2024-03-02T02:16:04;4.63;;;2.80;;
11098;SDS011;12223;42.650;23.364;2024-03-02T02:18:30;4.03;;;2.65;;
11098;SDS011;12223;42.650;23.364;2024-03-02T02:20:55;4.05;;;2.38;;
11098;SDS011;12223;42.650;23.364;2024-03-02T02:23:21;4.28;;;2.60;;
11098;SDS011;12223;42.650;23.364;2024-03-02T02:25:46;3.78;;;2.28;;
11098;SDS011;12223;42.650;23.364;2024-03-02T02:28:11;4.50;;;2.88;;
11098;SDS011;12223;42.650;23.364;2024-03-02T02:30:37;4.63;;;2.35;;
11098;SDS011;12223;42.650;23.364;2024-03-02T02:33:02;4.25;;;2.60;;
11098;SDS011;12223;42.650;23.364;2024-03-02T02:35:28;4.35;;;2.28;;
11098;SDS011;12223;42.650;23.364;2024-03-02T02:37:54;4.32;;;2.40;;
11098;SDS011;12223;42.650;23.364;2024-03-02T02:40:21;3.88;;;2.42;;
11098;SDS011;12223;42.650;23.364;2024-03-02T02:42:47;4.35;;;2.92;;
11098;SDS011;12223;42.650;23.364;2024-03-02T02:45:13;3.67;;;2.30;;
11098;SDS011;12223;42.650;23.364;2024-03-02T02:47:39;4.22;;;2.33;;
11098;SDS011;12223;42.650;23.364;2024-03-02T02:50:08;3.95;;;2.17;;
11098;SDS011;12223;42.650;23.364;2024-03-02T02:52:35;3.78;;;2.08;;
11098;SDS011;12223;42.650;23.364;2024-03-02T02:55:04;3.17;;;2.15;;
11098;SDS011;12223;42.650;23.364;2024-03-02T02:57:31;3.60;;;2.28;;
11098;SDS011;12223;42.650;23.364;2024-03-02T03:00:00;4.10;;;2.63;;
11098;SDS011;12223;42.650;23.364;2024-03-02T03:02:34;4.03;;;2.58;;
11098;SDS011;12223;42.650;23.364;2024-03-02T03:05:00;3.55;;;2.10;;
11098;SDS011;12223;42.650;23.364;2024-03-02T03:07:25;4.15;;;2.47;;
11098;SDS011;12223;42.650;23.364;2024-03-02T03:09:51;3.28;;;2.03;;
11098;SDS011;12223;42.650;23.364;2024-03-02T03:12:16;4.35;;;2.45;;
11098;SDS011;12223;42.650;23.364;2024-03-02T03:14:42;3.40;;;1.98;;
11098;SDS011;12223;42.650;23.364;2024-03-02T03:17:07;3.35;;;2.13;;
11098;SDS011;12223;42.650;23.364;2024-03-02T03:19:33;4.35;;;2.10;;
11098;SDS011;12223;42.650;23.364;2024-03-02T03:21:58;4.32;;;2.25;;
11098;SDS011;12223;42.650;23.364;2024-03-02T03:24:24;4.50;;;2.15;;
11098;SDS011;12223;42.650;23.364;2024-03-02T03:26:49;3.33;;;1.92;;
11098;SDS011;12223;42.650;23.364;2024-03-02T03:29:14;3.67;;;2.08;;
11098;SDS011;12223;42.650;23.364;2024-03-02T03:31:40;3.70;;;2.13;;
11098;SDS011;12223;42.650;23.364;2024-03-02T03:34:05;3.55;;;2.15;;
11098;SDS011;12223;42.650;23.364;2024-03-02T03:36:30;3.30;;;2.00;;
11098;SDS011;12223;42.650;23.364;2024-03-02T03:38:56;4.68;;;2.85;;
11098;SDS011;12223;42.650;23.364;2024-03-02T03:41:22;3.33;;;2.35;;
11098;SDS011;12223;42.650;23.364;2024-03-02T03:43:48;3.10;;;2.70;;
11098;SDS011;12223;42.650;23.364;2024-03-02T03:46:13;3.72;;;2.28;;
11098;SDS011;12223;42.650;23.364;2024-03-02T03:48:38;3.50;;;2.28;;
11098;SDS011;12223;42.650;23.364;2024-03-02T03:51:04;4.07;;;2.13;;
11098;SDS011;12223;42.650;23.364;2024-03-02T03:53:29;4.20;;;2.28;;
11098;SDS011;12223;42.650;23.364;2024-03-02T03:55:54;3.38;;;2.20;;
11098;SDS011;12223;42.650;23.364;2024-03-02T03:58:20;4.00;;;2.17;;
11098;SDS011;12223;42.650;23.364;2024-03-02T04:00:46;3.50;;;2.20;;
11098;SDS011;12223;42.650;23.364;2024-03-02T04:03:11;3.17;;;1.88;;
11098;SDS011;12223;42.650;23.364;2024-03-02T04:05:37;3.53;;;1.90;;
11098;SDS011;12223;42.650;23.364;2024-03-02T04:08:03;3.45;;;2.00;;
11098;SDS011;12223;42.650;23.364;2024-03-02T04:10:29;3.50;;;2.60;;
11098;SDS011;12223;42.650;23.364;2024-03-02T04:12:55;3.90;;;2.03;;
11098;SDS011;12223;42.650;23.364;2024-03-02T04:15:20;4.35;;;1.95;;
11098;SDS011;12223;42.650;23.364;2024-03-02T04:17:48;3.90;;;2.08;;
11098;SDS011;12223;42.650;23.364;2024-03-02T04:20:13;3.95;;;2.08;;
11098;SDS011;12223;42.650;23.364;2024-03-02T04:22:39;3.78;;;2.60;;
11098;SDS011;12223;42.650;23.364;2024-03-02T04:25:04;3.38;;;2.03;;
11098;SDS011;12223;42.650;23.364;2024-03-02T04:27:30;3.63;;;2.42;;
11098;SDS011;12223;42.650;23.364;2024-03-02T04:29:57;3.88;;;2.85;;
11098;SDS011;12223;42.650;23.364;2024-03-02T04:32:22;3.08;;;1.63;;
11098;SDS011;12223;42.650;23.364;2024-03-02T04:34:48;3.75;;;2.25;;
11098;SDS011;12223;42.650;23.364;2024-03-02T04:37:13;3.20;;;1.95;;
11098;SDS011;12223;42.650;23.364;2024-03-02T04:39:39;3.15;;;2.03;;
11098;SDS011;12223;42.650;23.364;2024-03-02T04:42:05;4.05;;;1.70;;
11098;SDS011;12223;42.650;23.364;2024-03-02T04:44:30;3.03;;;1.85;;
11098;SDS011;12223;42.650;23.364;2024-03-02T04:46:55;3.20;;;2.53;;
11098;SDS011;12223;42.650;23.364;2024-03-02T04:49:21;3.97;;;2.20;;
11098;SDS011;12223;42.650;23.364;2024-03-02T04:51:46;3.97;;;2.28;;
11098;SDS011;12223;42.650;23.364;2024-03-02T04:54:12;3.60;;;2.70;;
11098;SDS011;12223;42.650;23.364;2024-03-02T04:56:39;4.15;;;2.50;;
11098;SDS011;12223;42.650;23.364;2024-03-02T04:59:14;3.10;;;1.90;;
11098;SDS011;12223;42.650;23.364;2024-03-02T05:01:41;3.72;;;1.90;;
11098;SDS011;12223;42.650;23.364;2024-03-02T05:04:06;3.95;;;2.35;;
11098;SDS011;12223;42.650;23.364;2024-03-02T05:06:32;3.33;;;2.00;;
11098;SDS011;12223;42.650;23.364;2024-03-02T05:08:57;3.40;;;2.00;;
11098;SDS011;12223;42.650;23.364;2024-03-02T05:11:22;4.25;;;2.13;;
11098;SDS011;12223;42.650;23.364;2024-03-02T05:14:11;3.65;;;2.15;;
11098;SDS011;12223;42.650;23.364;2024-03-02T05:16:36;3.25;;;1.88;;
11098;SDS011;12223;42.650;23.364;2024-03-02T05:19:03;3.50;;;2.13;;
11098;SDS011;12223;42.650;23.364;2024-03-02T05:21:31;3.47;;;2.42;;
11098;SDS011;12223;42.650;23.364;2024-03-02T05:23:57;3.58;;;2.25;;
11098;SDS011;12223;42.650;23.364;2024-03-02T05:26:22;3.00;;;1.73;;
11098;SDS011;12223;42.650;23.364;2024-03-02T05:28:47;3.28;;;2.03;;
11098;SDS011;12223;42.650;23.364;2024-03-02T05:31:16;3.20;;;2.00;;
11098;SDS011;12223;42.650;23.364;2024-03-02T05:33:41;3.75;;;2.50;;
11098;SDS011;12223;42.650;23.364;2024-03-02T05:36:07;3.80;;;1.80;;
11098;SDS011;12223;42.650;23.364;2024-03-02T05:38:36;4.10;;;2.38;;
11098;SDS011;12223;42.650;23.364;2024-03-02T05:41:02;3.63;;;2.22;;
11098;SDS011;12223;42.650;23.364;2024-03-02T05:43:27;3.13;;;1.90;;
11098;SDS011;12223;42.650;23.364;2024-03-02T05:45:53;3.38;;;2.20;;
11098;SDS011;12223;42.650;23.364;2024-03-02T05:48:19;3.10;;;1.77;;
11098;SDS011;12223;42.650;23.364;2024-03-02T05:50:45;3.70;;;1.90;;
11098;SDS011;12223;42.650;23.364;2024-03-02T05:53:10;3.42;;;1.88;;
11098;SDS011;12223;42.650;23.364;2024-03-02T05:55:35;3.65;;;2.35;;
11098;SDS011;12223;42.650;23.364;2024-03-02T05:58:01;2.65;;;1.70;;
11098;SDS011;12223;42.650;23.364;2024-03-02T06:00:45;3.67;;;1.80;;
11098;SDS011;12223;42.650;23.364;2024-03-02T06:03:10;4.20;;;2.45;;
11098;SDS011;12223;42.650;23.364;2024-03-02T06:05:35;3.85;;;2.13;;
11098;SDS011;12223;42.650;23.364;2024-03-02T06:08:01;4.70;;;2.25;;
11098;SDS011;12223;42.650;23.364;2024-03-02T06:10:26;3.80;;;2.10;;
11098;SDS011;12223;42.650;23.364;2024-03-02T06:12:52;2.80;;;1.90;;
11098;SDS011;12223;42.650;23.364;2024-03-02T06:15:17;3.70;;;2.10;;
11098;SDS011;12223;42.650;23.364;2024-03-02T06:17:42;3.72;;;2.80;;
11098;SDS011;12223;42.650;23.364;2024-03-02T06:20:08;3.95;;;2.05;;
11098;SDS011;12223;42.650;23.364;2024-03-02T06:22:34;4.00;;;2.17;;
11098;SDS011;12223;42.650;23.364;2024-03-02T06:25:00;3.75;;;2.45;;
11098;SDS011;12223;42.650;23.364;2024-03-02T06:27:25;3.05;;;1.90;;
11098;SDS011;12223;42.650;23.364;2024-03-02T06:29:50;3.53;;;2.17;;
11098;SDS011;12223;42.650;23.364;2024-03-02T06:32:16;3.45;;;2.22;;
11098;SDS011;12223;42.650;23.364;2024-03-02T06:34:42;3.47;;;2.30;;
11098;SDS011;12223;42.650;23.364;2024-03-02T06:37:07;2.97;;;1.83;;
11098;SDS011;12223;42.650;23.364;2024-03-02T06:39:32;3.63;;;2.03;;
11098;SDS011;12223;42.650;23.364;2024-03-02T06:41:59;3.65;;;2.03;;
11098;SDS011;12223;42.650;23.364;2024-03-02T06:44:25;4.22;;;2.47;;
11098;SDS011;12223;42.650;23.364;2024-03-02T06:46:50;3.83;;;2.03;;
11098;SDS011;12223;42.650;23.364;2024-03-02T06:49:16;3.55;;;2.13;;
11098;SDS011;12223;42.650;23.364;2024-03-02T06:51:43;3.42;;;1.65;;
11098;SDS011;12223;42.650;23.364;2024-03-02T06:54:08;4.43;;;2.30;;
11098;SDS011;12223;42.650;23.364;2024-03-02T06:56:34;3.05;;;2.00;;
11098;SDS011;12223;42.650;23.364;2024-03-02T06:58:59;3.67;;;2.00;;
11098;SDS011;12223;42.650;23.364;2024-03-02T07:01:25;4.45;;;1.90;;
11098;SDS011;12223;42.650;23.364;2024-03-02T07:03:51;3.42;;;1.90;;
11098;SDS011;12223;42.650;23.364;2024-03-02T07:06:16;3.08;;;1.95;;
11098;SDS011;12223;42.650;23.364;2024-03-02T07:08:42;4.20;;;2.25;;
11098;SDS011;12223;42.650;23.364;2024-03-02T07:11:07;5.72;;;2.58;;
11098;SDS011;12223;42.650;23.364;2024-03-02T07:13:33;3.95;;;1.98;;
11098;SDS011;12223;42.650;23.364;2024-03-02T07:15:58;3.40;;;2.28;;
11098;SDS011;12223;42.650;23.364;2024-03-02T07:18:29;17.63;;;9.00;;
11098;SDS011;12223;42.650;23.364;2024-03-02T07:20:56;23.98;;;10.70;;
11098;SDS011;12223;42.650;23.364;2024-03-02T07:23:26;19.58;;;8.90;;
11098;SDS011;12223;42.650;23.364;2024-03-02T07:25:55;22.15;;;9.55;;
11098;SDS011;12223;42.650;23.364;2024-03-02T07:28:21;72.15;;;48.28;;
11098;SDS011;12223;42.650;23.364;2024-03-02T07:30:50;52.15;;;30.15;;
11098;SDS011;12223;42.650;23.364;2024-03-02T07:33:23;51.00;;;17.63;;
11098;SDS011;12223;42.650;23.364;2024-03-02T07:35:49;24.50;;;12.52;;
11098;SDS011;12223;42.650;23.364;2024-03-02T07:38:14;23.42;;;10.88;;
11098;SDS011;12223;42.650;23.364;2024-03-02T07:40:40;24.95;;;10.52;;
11098;SDS011;12223;42.650;23.364;2024-03-02T07:43:05;42.95;;;12.43;;
11098;SDS011;12223;42.650;23.364;2024-03-02T07:45:30;32.90;;;10.88;;
11098;SDS011;12223;42.650;23.364;2024-03-02T07:47:56;22.23;;;9.85;;
11098;SDS011;12223;42.650;23.364;2024-03-02T07:50:21;14.80;;;7.32;;
11098;SDS011;12223;42.650;23.364;2024-03-02T07:52:46;23.33;;;9.60;;
11098;SDS011;12223;42.650;23.364;2024-03-02T07:55:12;19.35;;;9.30;;
11098;SDS011;12223;42.650;23.364;2024-03-02T07:57:37;19.73;;;8.75;;
11098;SDS011;12223;42.650;23.364;2024-03-02T08:00:03;21.25;;;8.68;;
11098;SDS011;12223;42.650;23.364;2024-03-02T08:02:29;16.02;;;7.85;;
11098;SDS011;12223;42.650;23.364;2024-03-02T08:04:55;18.58;;;8.65;;
11098;SDS011;12223;42.650;23.364;2024-03-02T08:07:20;18.08;;;8.00;;
11098;SDS011;12223;42.650;23.364;2024-03-02T08:09:46;14.50;;;7.05;;
11098;SDS011;12223;42.650;23.364;2024-03-02T08:12:11;14.18;;;6.75;;
11098;SDS011;12223;42.650;23.364;2024-03-02T08:14:36;26.42;;;11.73;;
11098;SDS011;12223;42.650;23.364;2024-03-02T08:17:02;22.10;;;10.88;;
11098;SDS011;12223;42.650;23.364;2024-03-02T08:19:27;20.33;;;10.07;;
11098;SDS011;12223;42.650;23.364;2024-03-02T08:21:53;21.25;;;9.65;;
11098;SDS011;12223;42.650;23.364;2024-03-02T08:24:18;20.38;;;9.27;;
11098;SDS011;12223;42.650;23.364;2024-03-02T08:26:44;19.20;;;9.52;;
11098;SDS011;12223;42.650;23.364;2024-03-02T08:29:09;18.98;;;8.10;;
11098;SDS011;12223;42.650;23.364;2024-03-02T08:31:35;16.27;;;6.65;;
11098;SDS011;12223;42.650;23.364;2024-03-02T08:34:00;57.83;;;11.40;;
11098;SDS011;12223;42.650;23.364;2024-03-02T08:36:26;24.67;;;9.38;;
11098;SDS011;12223;42.650;23.364;2024-03-02T08:38:51;19.17;;;8.55;;
11098;SDS011;12223;42.650;23.364;2024-03-02T08:41:16;57.25;;;34.30;;
11098;SDS011;12223;42.650;23.364;2024-03-02T08:43:42;45.28;;;15.07;;
11098;SDS011;12223;42.650;23.364;2024-03-02T08:46:08;50.25;;;12.85;;
11098;SDS011;12223;42.650;23.364;2024-03-02T08:48:34;26.33;;;10.95;;
11098;SDS011;12223;42.650;23.364;2024-03-02T08:50:59;22.65;;;10.68;;
11098;SDS011;12223;42.650;23.364;2024-03-02T08:53:25;33.70;;;10.45;;
11098;SDS011;12223;42.650;23.364;2024-03-02T08:55:51;69.85;;;13.38;;
11098;SDS011;12223;42.650;23.364;2024-03-02T08:58:16;356.40;;;33.00;;
11098;SDS011;12223;42.650;23.364;2024-03-02T09:00:41;44.03;;;12.10;;
11098;SDS011;12223;42.650;23.364;2024-03-02T09:03:07;26.83;;;10.27;;
11098;SDS011;12223;42.650;23.364;2024-03-02T09:05:33;23.83;;;10.60;;
11098;SDS011;12223;42.650;23.364;2024-03-02T09:07:58;21.25;;;9.38;;
11098;SDS011;12223;42.650;23.364;2024-03-02T09:10:23;24.92;;;10.18;;
11098;SDS011;12223;42.650;23.364;2024-03-02T09:12:49;23.48;;;10.27;;
11098;SDS011;12223;42.650;23.364;2024-03-02T09:15:15;27.25;;;11.90;;
11098;SDS011;12223;42.650;23.364;2024-03-02T09:17:40;28.90;;;13.18;;
11098;SDS011;12223;42.650;23.364;2024-03-02T09:20:06;22.33;;;10.20;;
11098;SDS011;12223;42.650;23.364;2024-03-02T09:22:32;18.15;;;9.15;;
11098;SDS011;12223;42.650;23.364;2024-03-02T09:24:57;19.38;;;9.43;;
11098;SDS011;12223;42.650;23.364;2024-03-02T09:27:23;20.90;;;9.23;;
11098;SDS011;12223;42.650;23.364;2024-03-02T09:29:48;47.15;;;10.90;;
11098;SDS011;12223;42.650;23.364;2024-03-02T09:32:14;32.22;;;11.00;;
11098;SDS011;12223;42.650;23.364;2024-03-02T09:34:39;37.80;;;12.55;;
11098;SDS011;12223;42.650;23.364;2024-03-02T09:37:05;32.83;;;9.60;;
11098;SDS011;12223;42.650;23.364;2024-03-02T09:39:31;35.53;;;8.95;;
11098;SDS011;12223;42.650;23.364;2024-03-02T09:41:57;33.95;;;11.02;;
11098;SDS011;12223;42.650;23.364;2024-03-02T09:44:23;21.98;;;8.77;;
11098;SDS011;12223;42.650;23.364;2024-03-02T09:46:50;33.80;;;9.00;;
11098;SDS011;12223;42.650;23.364;2024-03-02T09:49:16;32.38;;;10.70;;
11098;SDS011;12223;42.650;23.364;2024-03-02T09:51:44;26.17;;;9.48;;
11098;SDS011;12223;42.650;23.364;2024-03-02T09:54:12;163.10;;;17.85;;
11098;SDS011;12223;42.650;23.364;2024-03-02T09:56:38;67.60;;;11.85;;
11098;SDS011;12223;42.650;23.364;2024-03-02T09:59:04;70.70;;;11.02;;
11098;SDS011;12223;42.650;23.364;2024-03-02T10:01:30;49.45;;;7.43;;
11098;SDS011;12223;42.650;23.364;2024-03-02T10:03:57;34.53;;;7.05;;
11098;SDS011;12223;42.650;23.364;2024-03-02T10:06:25;25.05;;;6.00;;
11098;SDS011;12223;42.650;23.364;2024-03-02T10:08:51;23.38;;;5.72;;
11098;SDS011;12223;42.650;23.364;2024-03-02T10:11:31;18.95;;;6.18;;
11098;SDS011;12223;42.650;23.364;2024-03-02T10:14:07;17.13;;;6.05;;
11098;SDS011;12223;42.650;23.364;2024-03-02T10:16:38;17.98;;;5.75;;
11098;SDS011;12223;42.650;23.364;2024-03-02T10:21:43;12.77;;;5.70;;
11098;SDS011;12223;42.650;23.364;2024-03-02T10:24:12;13.98;;;5.32;;
11098;SDS011;12223;42.650;23.364;2024-03-02T10:26:38;15.43;;;5.35;;
11098;SDS011;12223;42.650;23.364;2024-03-02T10:29:03;13.38;;;4.80;;
11098;SDS011;12223;42.650;23.364;2024-03-02T10:31:29;14.15;;;4.82;;
11098;SDS011;12223;42.650;23.364;2024-03-02T10:33:54;15.25;;;5.70;;
11098;SDS011;12223;42.650;23.364;2024-03-02T10:36:20;15.10;;;4.88;;
11098;SDS011;12223;42.650;23.364;2024-03-02T10:38:46;13.43;;;4.93;;
11098;SDS011;12223;42.650;23.364;2024-03-02T10:41:16;11.95;;;4.22;;
11098;SDS011;12223;42.650;23.364;2024-03-02T10:43:43;10.90;;;4.35;;
11098;SDS011;12223;42.650;23.364;2024-03-02T10:46:09;11.98;;;5.32;;
11098;SDS011;12223;42.650;23.364;2024-03-02T10:48:36;13.43;;;4.55;;
11098;SDS011;12223;42.650;23.364;2024-03-02T10:51:05;12.85;;;4.05;;
11098;SDS011;12223;42.650;23.364;2024-03-02T10:53:31;14.48;;;4.65;;
11098;SDS011;12223;42.650;23.364;2024-03-02T10:55:57;9.45;;;4.30;;
11098;SDS011;12223;42.650;23.364;2024-03-02T10:58:27;9.60;;;4.88;;
11098;SDS011;12223;42.650;23.364;2024-03-02T11:00:59;9.02;;;4.05;;
11098;SDS011;12223;42.650;23.364;2024-03-02T11:03:27;8.80;;;4.00;;
11098;SDS011;12223;42.650;23.364;2024-03-02T11:05:54;8.88;;;4.18;;
11098;SDS011;12223;42.650;23.364;2024-03-02T11:08:22;9.90;;;4.85;;
11098;SDS011;12223;42.650;23.364;2024-03-02T11:10:50;11.20;;;4.32;;
11098;SDS011;12223;42.650;23.364;2024-03-02T11:13:32;8.60;;;4.18;;
11098;SDS011;12223;42.650;23.364;2024-03-02T11:16:24;9.35;;;4.30;;
11098;SDS011;12223;42.650;23.364;2024-03-02T11:19:01;6.82;;;3.83;;
11098;SDS011;12223;42.650;23.364;2024-03-02T11:21:29;9.35;;;3.85;;
11098;SDS011;12223;42.650;23.364;2024-03-02T11:23:54;7.82;;;3.75;;
11098;SDS011;12223;42.650;23.364;2024-03-02T11:26:21;6.68;;;3.95;;
11098;SDS011;12223;42.650;23.364;2024-03-02T11:28:47;6.10;;;3.35;;
11098;SDS011;12223;42.650;23.364;2024-03-02T11:31:13;7.60;;;3.25;;
11098;SDS011;12223;42.650;23.364;2024-03-02T11:33:38;6.28;;;3.35;;
11098;SDS011;12223;42.650;23.364;2024-03-02T11:36:05;7.57;;;3.75;;
11098;SDS011;12223;42.650;23.364;2024-03-02T11:38:33;7.15;;;3.75;;
11098;SDS011;12223;42.650;23.364;2024-03-02T11:41:00;7.35;;;3.28;;
11098;SDS011;12223;42.650;23.364;2024-03-02T11:43:30;6.13;;;3.25;;
11098;SDS011;12223;42.650;23.364;2024-03-02T11:46:03;5.80;;;3.25;;
11098;SDS011;12223;42.650;23.364;2024-03-02T11:48:32;5.68;;;3.08;;
11098;SDS011;12223;42.650;23.364;2024-03-02T11:51:00;6.47;;;3.13;;
11098;SDS011;12223;42.650;23.364;2024-03-02T11:53:26;5.07;;;3.10;;
11098;SDS011;12223;42.650;23.364;2024-03-02T11:55:55;5.68;;;3.03;;
11098;SDS011;12223;42.650;23.364;2024-03-02T11:58:21;4.97;;;3.33;;
11098;SDS011;12223;42.650;23.364;2024-03-02T12:00:54;4.55;;;2.55;;
11098;SDS011;12223;42.650;23.364;2024-03-02T12:03:22;5.35;;;3.20;;
11098;SDS011;12223;42.650;23.364;2024-03-02T12:05:49;4.18;;;2.42;;
11098;SDS011;12223;42.650;23.364;2024-03-02T12:08:15;4.63;;;2.70;;
11098;SDS011;12223;42.650;23.364;2024-03-02T12:10:41;5.15;;;2.80;;
11098;SDS011;12223;42.650;23.364;2024-03-02T12:13:07;4.25;;;2.38;;
11098;SDS011;12223;42.650;23.364;2024-03-02T12:15:35;4.45;;;2.85;;
11098;SDS011;12223;42.650;23.364;2024-03-02T12:18:02;5.65;;;2.35;;
11098;SDS011;12223;42.650;23.364;2024-03-02T12:20:28;5.38;;;3.10;;
11098;SDS011;12223;42.650;23.364;2024-03-02T12:22:56;4.68;;;2.53;;
11098;SDS011;12223;42.650;23.364;2024-03-02T12:25:23;4.18;;;2.42;;
11098;SDS011;12223;42.650;23.364;2024-03-02T12:27:50;4.57;;;2.30;;
11098;SDS011;12223;42.650;23.364;2024-03-02T12:30:17;4.20;;;2.22;;
11098;SDS011;12223;42.650;23.364;2024-03-02T12:32:44;3.35;;;1.98;;
11098;SDS011;12223;42.650;23.364;2024-03-02T12:35:10;3.83;;;1.92;;
11098;SDS011;12223;42.650;23.364;2024-03-02T12:37:46;9.40;;;5.82;;
11098;SDS011;12223;42.650;23.364;2024-03-02T12:40:15;6.95;;;4.85;;
11098;SDS011;12223;42.650;23.364;2024-03-02T12:42:45;6.05;;;3.65;;
11098;SDS011;12223;42.650;23.364;2024-03-02T12:45:11;7.28;;;3.97;;
11098;SDS011;12223;42.650;23.364;2024-03-02T12:47:39;7.07;;;4.15;;
11098;SDS011;12223;42.650;23.364;2024-03-02T12:50:05;5.60;;;3.10;;
11098;SDS011;12223;42.650;23.364;2024-03-02T12:52:31;5.75;;;3.40;;
11098;SDS011;12223;42.650;23.364;2024-03-02T12:54:58;6.22;;;4.03;;
11098;SDS011;12223;42.650;23.364;2024-03-02T12:57:33;5.93;;;3.13;;
11098;SDS011;12223;42.650;23.364;2024-03-02T12:59:59;5.43;;;3.22;;
11098;SDS011;12223;42.650;23.364;2024-03-02T13:02:34;5.35;;;3.13;;
11098;SDS011;12223;42.650;23.364;2024-03-02T13:05:00;5.28;;;3.30;;
11098;SDS011;12223;42.650;23.364;2024-03-02T13:07:26;5.78;;;3.50;;
11098;SDS011;12223;42.650;23.364;2024-03-02T13:09:52;5.72;;;2.83;;
11098;SDS011;12223;42.650;23.364;2024-03-02T13:12:21;5.07;;;2.72;;
11098;SDS011;12223;42.650;23.364;2024-03-02T13:14:48;4.72;;;2.80;;
11098;SDS011;12223;42.650;23.364;2024-03-02T13:17:15;6.18;;;3.40;;
11098;SDS011;12223;42.650;23.364;2024-03-02T13:19:56;4.70;;;2.60;;
11098;SDS011;12223;42.650;23.364;2024-03-02T13:22:23;3.90;;;2.80;;
11098;SDS011;12223;42.650;23.364;2024-03-02T13:24:50;4.40;;;2.88;;
11098;SDS011;12223;42.650;23.364;2024-03-02T13:27:16;3.92;;;2.42;;
11098;SDS011;12223;42.650;23.364;2024-03-02T13:29:44;5.00;;;3.03;;
11098;SDS011;12223;42.650;23.364;2024-03-02T13:32:11;5.43;;;2.83;;
11098;SDS011;12223;42.650;23.364;2024-03-02T13:34:37;5.28;;;3.03;;
11098;SDS011;12223;42.650;23.364;2024-03-02T13:37:02;5.78;;;2.40;;
11098;SDS011;12223;42.650;23.364;2024-03-02T13:39:29;4.95;;;2.78;;
11098;SDS011;12223;42.650;23.364;2024-03-02T13:41:56;4.72;;;2.30;;
11098;SDS011;12223;42.650;23.364;2024-03-02T13:44:30;6.07;;;3.28;;
11098;SDS011;12223;42.650;23.364;2024-03-02T13:46:56;5.13;;;2.60;;
11098;SDS011;12223;42.650;23.364;2024-03-02T13:49:22;5.40;;;2.85;;
11098;SDS011;12223;42.650;23.364;2024-03-02T13:51:48;5.05;;;2.78;;
11098;SDS011;12223;42.650;23.364;2024-03-02T13:54:13;5.05;;;2.58;;
11098;SDS011;12223;42.650;23.364;2024-03-02T13:56:39;7.60;;;2.90;;
11098;SDS011;12223;42.650;23.364;2024-03-02T13:59:05;6.32;;;2.92;;
11098;SDS011;12223;42.650;23.364;2024-03-02T14:01:31;7.53;;;3.05;;
11098;SDS011;12223;42.650;23.364;2024-03-02T14:03:57;8.88;;;2.85;;
11098;SDS011;12223;42.650;23.364;2024-03-02T14:06:23;6.47;;;2.60;;
11098;SDS011;12223;42.650;23.364;2024-03-02T14:08:51;4.90;;;2.20;;
11098;SDS011;12223;42.650;23.364;2024-03-02T14:11:16;7.32;;;3.58;;
11098;SDS011;12223;42.650;23.364;2024-03-02T14:13:42;7.00;;;2.20;;
11098;SDS011;12223;42.650;23.364;2024-03-02T14:16:09;10.65;;;4.50;;
11098;SDS011;12223;42.650;23.364;2024-03-02T14:18:35;11.02;;;4.43;;
11098;SDS011;12223;42.650;23.364;2024-03-02T14:21:01;10.57;;;4.72;;
11098;SDS011;12223;42.650;23.364;2024-03-02T14:23:26;11.15;;;4.10;;
11098;SDS011;12223;42.650;23.364;2024-03-02T14:25:53;7.32;;;3.60;;
11098;SDS011;12223;42.650;23.364;2024-03-02T14:28:18;6.72;;;4.95;;
11098;SDS011;12223;42.650;23.364;2024-03-02T14:30:44;10.68;;;4.75;;
11098;SDS011;12223;42.650;23.364;2024-03-02T14:33:10;9.35;;;3.47;;